This is the latest recevied weather packets stored in our database for station/object EFTP. If no packets are shown the sender has not sent any weather packets the latest 1 day(s).
| Time | Temp. | Humidity | Pressure | Rain* | Wind** | Luminosity | Snow |
|---|---|---|---|---|---|---|---|
| 1836274172 | 11.67° C | 96% | 1006 hPa | - | 4.02 m/s, 181° | - | - |
| 1778057243 | 8.33° C | 33% | 1012 hPa | - | 6.71 m/s, 262° | - | - |
| 1778056043 | 7.22° C | 35% | 1011.9 hPa | - | 7.6 m/s, 255° | - | - |
| 1778054842 | 7.22° C | 35% | 1011.7 hPa | - | 7.6 m/s, 253° | - | - |
| 1778053642 | 7.22° C | 35% | 1011.5 hPa | - | 7.15 m/s, 266° | - | - |
| 1778052443 | 7.22° C | 37% | 1011.5 hPa | - | 6.71 m/s, 261° | - | - |
| 1778051242 | 6.67° C | 44% | 1011.3 hPa | - | 6.71 m/s, 255° | - | - |
| 1778050042 | 5.56° C | 48% | 1011.3 hPa | - | 6.71 m/s, 259° | - | - |
| 1778048842 | 5.56° C | 52% | 1011.2 hPa | - | 4.92 m/s, 253° | - | - |
| 1778047642 | 5.56° C | 52% | 1011.1 hPa | - | 4.02 m/s, 288° | - | - |
| 1778046442 | 5° C | 58% | 1010.9 hPa | - | 3.58 m/s, 283° | - | - |
| 1778045243 | 3.89° C | 68% | 1010.9 hPa | - | 3.58 m/s, 266° | - | - |
| 1778044042 | 3.89° C | 72% | 1010.7 hPa | - | 3.58 m/s, 261° | - | - |
| 1778042842 | 3.33° C | 73% | 1010.5 hPa | - | 3.58 m/s, 257° | - | - |
| 1778041642 | 2.78° C | 77% | 1010.4 hPa | - | 3.58 m/s, 256° | - | - |
| 1778040441 | 2.22° C | 83% | 1010.2 hPa | - | 3.58 m/s, 247° | - | - |
| 1778039242 | 1.11° C | 88% | 1010.1 hPa | - | 2.68 m/s, 252° | - | - |
| 1778038041 | 0° C | 90% | 1009.9 hPa | - | 2.68 m/s, 247° | - | - |
| 1778036842 | -0.56° C | 92% | 1009.7 hPa | - | 2.24 m/s, 242° | - | - |
| 1778035641 | -1.11° C | 91% | 1009.5 hPa | - | 2.68 m/s, 238° | - | - |
| 1778034441 | -0.56° C | 91% | 1009.1 hPa | - | 2.24 m/s, 243° | - | - |
| 1778033241 | 0° C | 92% | 1009.1 hPa | - | 3.58 m/s, 258° | - | - |
| 1778032041 | 0.56° C | 89% | 1008.9 hPa | - | 3.58 m/s, 262° | - | - |
| 1778030841 | 0.56° C | 88% | 1008.8 hPa | - | 3.58 m/s, 266° | - | - |
| 1778029641 | 0.56° C | 89% | 1008.6 hPa | - | 4.02 m/s, 253° | - | - |
* Rain since midnight (hover to see other rain measurements)
** Current wind speed in m/s (hover to see current wind gust speed)